sensor_id;sensor_type;location;lat;lon;timestamp;temperature;humidity
68109;SHT30;54893;49.864;19.084;2023-12-22T00:02:05;5.56;92.64
68109;SHT30;54893;49.864;19.084;2023-12-22T00:07:05;5.43;92.37
68109;SHT30;54893;49.864;19.084;2023-12-22T00:12:05;5.26;92.69
68109;SHT30;54893;49.864;19.084;2023-12-22T00:17:07;5.42;91.99
68109;SHT30;54893;49.864;19.084;2023-12-22T00:22:07;5.18;92.73
68109;SHT30;54893;49.864;19.084;2023-12-22T00:27:07;5.11;93.29
68109;SHT30;54893;49.864;19.084;2023-12-22T00:32:08;5.00;93.59
68109;SHT30;54893;49.864;19.084;2023-12-22T00:37:09;4.96;93.89
68109;SHT30;54893;49.864;19.084;2023-12-22T00:42:10;4.89;93.95
68109;SHT30;54893;49.864;19.084;2023-12-22T00:47:10;5.08;93.01
68109;SHT30;54893;49.864;19.084;2023-12-22T00:52:10;5.15;91.33
68109;SHT30;54893;49.864;19.084;2023-12-22T00:57:11;5.06;91.97
68109;SHT30;54893;49.864;19.084;2023-12-22T01:02:12;4.67;92.86
68109;SHT30;54893;49.864;19.084;2023-12-22T01:07:13;4.54;93.42
68109;SHT30;54893;49.864;19.084;2023-12-22T01:12:14;4.22;93.31
68109;SHT30;54893;49.864;19.084;2023-12-22T01:17:14;4.18;93.61
68109;SHT30;54893;49.864;19.084;2023-12-22T01:22:14;4.11;94.32
68109;SHT30;54893;49.864;19.084;2023-12-22T01:27:15;4.24;94.36
68109;SHT30;54893;49.864;19.084;2023-12-22T01:32:15;4.08;94.95
68109;SHT30;54893;49.864;19.084;2023-12-22T01:37:16;4.28;94.76
68109;SHT30;54893;49.864;19.084;2023-12-22T01:42:16;4.18;95.00
68109;SHT30;54893;49.864;19.084;2023-12-22T01:47:16;4.14;94.76
68109;SHT30;54893;49.864;19.084;2023-12-22T01:52:17;4.01;95.04
68109;SHT30;54893;49.864;19.084;2023-12-22T01:57:18;4.16;94.50
68109;SHT30;54893;49.864;19.084;2023-12-22T02:02:19;4.11;94.14
68109;SHT30;54893;49.864;19.084;2023-12-22T02:07:19;4.08;93.47
68109;SHT30;54893;49.864;19.084;2023-12-22T02:12:20;4.10;93.06
68109;SHT30;54893;49.864;19.084;2023-12-22T02:17:44;4.11;92.24
68109;SHT30;54893;49.864;19.084;2023-12-22T02:22:52;4.14;91.97
68109;SHT30;54893;49.864;19.084;2023-12-22T02:28:03;4.11;91.64
68109;SHT30;54893;49.864;19.084;2023-12-22T02:33:06;4.05;90.91
68109;SHT30;54893;49.864;19.084;2023-12-22T02:38:08;3.97;90.53
68109;SHT30;54893;49.864;19.084;2023-12-22T02:43:09;3.87;90.82
68109;SHT30;54893;49.864;19.084;2023-12-22T02:48:09;3.77;90.81
68109;SHT30;54893;49.864;19.084;2023-12-22T02:53:11;3.77;90.43
68109;SHT30;54893;49.864;19.084;2023-12-22T02:58:11;3.67;90.46
68109;SHT30;54893;49.864;19.084;2023-12-22T03:03:12;3.77;89.56
68109;SHT30;54893;49.864;19.084;2023-12-22T03:08:13;3.62;89.50
68109;SHT30;54893;49.864;19.084;2023-12-22T03:13:13;3.69;88.90
68109;SHT30;54893;49.864;19.084;2023-12-22T03:18:14;3.72;88.18
68109;SHT30;54893;49.864;19.084;2023-12-22T03:23:14;3.63;88.24
68109;SHT30;54893;49.864;19.084;2023-12-22T03:28:14;3.86;86.57
68109;SHT30;54893;49.864;19.084;2023-12-22T03:33:15;3.84;86.27
68109;SHT30;54893;49.864;19.084;2023-12-22T03:38:15;3.89;86.30
68109;SHT30;54893;49.864;19.084;2023-12-22T03:43:15;3.77;86.63
68109;SHT30;54893;49.864;19.084;2023-12-22T03:48:16;3.73;86.80
68109;SHT30;54893;49.864;19.084;2023-12-22T03:53:16;3.83;86.06
68109;SHT30;54893;49.864;19.084;2023-12-22T03:58:17;3.73;86.39
68109;SHT30;54893;49.864;19.084;2023-12-22T04:03:17;3.80;85.89
68109;SHT30;54893;49.864;19.084;2023-12-22T04:08:17;3.76;85.63
68109;SHT30;54893;49.864;19.084;2023-12-22T04:13:18;3.77;85.49
68109;SHT30;54893;49.864;19.084;2023-12-22T04:18:18;3.69;85.85
68109;SHT30;54893;49.864;19.084;2023-12-22T04:23:19;3.53;86.35
68109;SHT30;54893;49.864;19.084;2023-12-22T04:28:20;3.67;85.61
68109;SHT30;54893;49.864;19.084;2023-12-22T04:33:20;3.69;84.82
68109;SHT30;54893;49.864;19.084;2023-12-22T04:38:20;3.62;84.75
68109;SHT30;54893;49.864;19.084;2023-12-22T04:43:21;3.64;84.41
68109;SHT30;54893;49.864;19.084;2023-12-22T04:48:21;3.53;84.96
68109;SHT30;54893;49.864;19.084;2023-12-22T04:53:21;3.58;84.44
68109;SHT30;54893;49.864;19.084;2023-12-22T04:58:22;3.58;84.28
68109;SHT30;54893;49.864;19.084;2023-12-22T05:03:22;3.56;84.61
68109;SHT30;54893;49.864;19.084;2023-12-22T05:08:22;3.63;84.37
68109;SHT30;54893;49.864;19.084;2023-12-22T05:13:23;3.58;84.71
68109;SHT30;54893;49.864;19.084;2023-12-22T05:18:25;3.80;83.77
68109;SHT30;54893;49.864;19.084;2023-12-22T05:23:25;3.74;83.33
68109;SHT30;54893;49.864;19.084;2023-12-22T05:28:26;3.84;82.36
68109;SHT30;54893;49.864;19.084;2023-12-22T05:33:26;4.00;80.63
68109;SHT30;54893;49.864;19.084;2023-12-22T05:38:26;4.04;78.59
68109;SHT30;54893;49.864;19.084;2023-12-22T05:43:27;3.93;76.29
68109;SHT30;54893;49.864;19.084;2023-12-22T05:48:27;3.93;76.17
68109;SHT30;54893;49.864;19.084;2023-12-22T05:53:28;3.53;75.82
68109;SHT30;54893;49.864;19.084;2023-12-22T05:58:28;3.30;76.22
68109;SHT30;54893;49.864;19.084;2023-12-22T06:03:28;3.05;77.93
68109;SHT30;54893;49.864;19.084;2023-12-22T06:08:29;2.84;79.13
68109;SHT30;54893;49.864;19.084;2023-12-22T06:13:29;2.75;78.63
68109;SHT30;54893;49.864;19.084;2023-12-22T06:18:29;2.60;79.06
68109;SHT30;54893;49.864;19.084;2023-12-22T06:23:30;2.42;79.31
68109;SHT30;54893;49.864;19.084;2023-12-22T06:28:30;2.48;79.22
68109;SHT30;54893;49.864;19.084;2023-12-22T06:33:30;2.36;80.09
68109;SHT30;54893;49.864;19.084;2023-12-22T06:38:31;2.21;82.10
68109;SHT30;54893;49.864;19.084;2023-12-22T06:43:31;2.37;85.00
68109;SHT30;54893;49.864;19.084;2023-12-22T06:48:31;2.40;86.71
68109;SHT30;54893;49.864;19.084;2023-12-22T06:53:32;2.44;87.21
68109;SHT30;54893;49.864;19.084;2023-12-22T06:58:33;2.38;88.04
68109;SHT30;54893;49.864;19.084;2023-12-22T07:03:33;2.26;88.70
68109;SHT30;54893;49.864;19.084;2023-12-22T07:08:33;2.31;88.80
68109;SHT30;54893;49.864;19.084;2023-12-22T07:13:34;2.33;88.89
68109;SHT30;54893;49.864;19.084;2023-12-22T07:18:37;2.38;89.02
68109;SHT30;54893;49.864;19.084;2023-12-22T07:23:38;2.52;88.87
68109;SHT30;54893;49.864;19.084;2023-12-22T07:28:38;2.77;88.50
68109;SHT30;54893;49.864;19.084;2023-12-22T07:33:39;2.81;88.40
68109;SHT30;54893;49.864;19.084;2023-12-22T07:38:40;2.96;87.94
68109;SHT30;54893;49.864;19.084;2023-12-22T07:43:41;3.02;87.17
68109;SHT30;54893;49.864;19.084;2023-12-22T07:48:42;3.28;85.58
68109;SHT30;54893;49.864;19.084;2023-12-22T07:53:42;3.19;85.40
68109;SHT30;54893;49.864;19.084;2023-12-22T07:58:43;3.25;84.79
68109;SHT30;54893;49.864;19.084;2023-12-22T08:03:43;3.32;84.57
68109;SHT30;54893;49.864;19.084;2023-12-22T08:08:43;3.36;84.49
68109;SHT30;54893;49.864;19.084;2023-12-22T08:13:44;3.30;84.41
68109;SHT30;54893;49.864;19.084;2023-12-22T08:18:45;3.32;83.97
68109;SHT30;54893;49.864;19.084;2023-12-22T08:23:45;3.29;83.56
68109;SHT30;54893;49.864;19.084;2023-12-22T08:28:46;3.20;83.56
68109;SHT30;54893;49.864;19.084;2023-12-22T08:33:46;3.13;83.57
68109;SHT30;54893;49.864;19.084;2023-12-22T08:38:48;3.16;83.07
68109;SHT30;54893;49.864;19.084;2023-12-22T08:43:48;3.09;82.79
68109;SHT30;54893;49.864;19.084;2023-12-22T08:48:49;3.04;81.88
68109;SHT30;54893;49.864;19.084;2023-12-22T08:53:49;2.89;81.62
68109;SHT30;54893;49.864;19.084;2023-12-22T08:58:54;2.84;82.09
68109;SHT30;54893;49.864;19.084;2023-12-22T09:03:59;2.65;82.98
68109;SHT30;54893;49.864;19.084;2023-12-22T09:08:59;2.58;84.37
68109;SHT30;54893;49.864;19.084;2023-12-22T09:14:00;2.31;85.96
68109;SHT30;54893;49.864;19.084;2023-12-22T09:19:00;2.33;86.76
68109;SHT30;54893;49.864;19.084;2023-12-22T09:24:01;2.38;87.82
68109;SHT30;54893;49.864;19.084;2023-12-22T09:29:01;2.31;88.82
68109;SHT30;54893;49.864;19.084;2023-12-22T09:34:01;2.50;88.83
68109;SHT30;54893;49.864;19.084;2023-12-22T09:39:02;2.58;88.15
68109;SHT30;54893;49.864;19.084;2023-12-22T09:44:04;2.82;86.37
68109;SHT30;54893;49.864;19.084;2023-12-22T09:49:07;3.16;84.51
68109;SHT30;54893;49.864;19.084;2023-12-22T09:54:08;3.49;83.65
68109;SHT30;54893;49.864;19.084;2023-12-22T09:59:11;3.48;83.38
68109;SHT30;54893;49.864;19.084;2023-12-22T10:04:14;3.29;84.31
68109;SHT30;54893;49.864;19.084;2023-12-22T10:09:16;3.29;84.50
68109;SHT30;54893;49.864;19.084;2023-12-22T10:14:16;3.32;84.70
68109;SHT30;54893;49.864;19.084;2023-12-22T10:19:22;3.36;84.62
68109;SHT30;54893;49.864;19.084;2023-12-22T10:24:45;3.43;84.48
68109;SHT30;54893;49.864;19.084;2023-12-22T10:29:54;3.64;83.90
68109;SHT30;54893;49.864;19.084;2023-12-22T10:34:56;3.83;83.52
68109;SHT30;54893;49.864;19.084;2023-12-22T10:39:57;3.76;84.01
68109;SHT30;54893;49.864;19.084;2023-12-22T10:44:58;3.72;83.49
68109;SHT30;54893;49.864;19.084;2023-12-22T10:50:05;3.66;83.56
68109;SHT30;54893;49.864;19.084;2023-12-22T10:55:05;3.49;83.75
68109;SHT30;54893;49.864;19.084;2023-12-22T11:00:07;3.53;83.74
68109;SHT30;54893;49.864;19.084;2023-12-22T11:05:10;3.44;84.00
68109;SHT30;54893;49.864;19.084;2023-12-22T11:10:11;3.33;84.78
68109;SHT30;54893;49.864;19.084;2023-12-22T11:15:14;3.30;85.67
68109;SHT30;54893;49.864;19.084;2023-12-22T11:20:15;3.04;87.12
68109;SHT30;54893;49.864;19.084;2023-12-22T11:25:16;2.94;87.52
68109;SHT30;54893;49.864;19.084;2023-12-22T11:30:18;3.01;86.87
68109;SHT30;54893;49.864;19.084;2023-12-22T11:35:21;3.08;86.67
68109;SHT30;54893;49.864;19.084;2023-12-22T11:40:23;3.22;86.91
68109;SHT30;54893;49.864;19.084;2023-12-22T11:45:23;3.35;86.97
68109;SHT30;54893;49.864;19.084;2023-12-22T11:50:28;3.59;85.25
68109;SHT30;54893;49.864;19.084;2023-12-22T12:01:01;3.97;82.67
68109;SHT30;54893;49.864;19.084;2023-12-22T12:06:14;4.14;80.78
68109;SHT30;54893;49.864;19.084;2023-12-22T12:11:15;4.18;80.52
68109;SHT30;54893;49.864;19.084;2023-12-22T12:16:19;4.17;80.32
68109;SHT30;54893;49.864;19.084;2023-12-22T12:21:23;4.01;80.68
68109;SHT30;54893;49.864;19.084;2023-12-22T12:26:23;3.95;80.63
68109;SHT30;54893;49.864;19.084;2023-12-22T12:31:36;3.95;80.23
68109;SHT30;54893;49.864;19.084;2023-12-22T12:36:38;3.98;79.51
68109;SHT30;54893;49.864;19.084;2023-12-22T12:41:40;3.94;79.79
68109;SHT30;54893;49.864;19.084;2023-12-22T12:46:41;3.87;79.85
68109;SHT30;54893;49.864;19.084;2023-12-22T12:51:47;3.87;79.87
68109;SHT30;54893;49.864;19.084;2023-12-22T12:56:47;3.94;79.62
68109;SHT30;54893;49.864;19.084;2023-12-22T13:01:48;4.34;76.57
68109;SHT30;54893;49.864;19.084;2023-12-22T13:06:50;4.47;74.96
68109;SHT30;54893;49.864;19.084;2023-12-22T13:11:50;4.49;72.91
68109;SHT30;54893;49.864;19.084;2023-12-22T13:16:52;4.36;72.59
68109;SHT30;54893;49.864;19.084;2023-12-22T13:21:55;4.16;72.67
68109;SHT30;54893;49.864;19.084;2023-12-22T13:27:03;4.07;72.95
68109;SHT30;54893;49.864;19.084;2023-12-22T13:32:06;3.97;73.78
68109;SHT30;54893;49.864;19.084;2023-12-22T13:37:06;3.77;74.94
68109;SHT30;54893;49.864;19.084;2023-12-22T13:42:16;3.84;73.87
68109;SHT30;54893;49.864;19.084;2023-12-22T13:47:20;3.70;74.33
68109;SHT30;54893;49.864;19.084;2023-12-22T13:52:27;3.91;72.10
68109;SHT30;54893;49.864;19.084;2023-12-22T13:57:28;3.84;72.84
68109;SHT30;54893;49.864;19.084;2023-12-22T14:02:29;3.82;72.67
68109;SHT30;54893;49.864;19.084;2023-12-22T14:07:29;3.55;72.11
68109;SHT30;54893;49.864;19.084;2023-12-22T14:12:30;3.63;70.63
68109;SHT30;54893;49.864;19.084;2023-12-22T14:17:30;3.32;71.33
68109;SHT30;54893;49.864;19.084;2023-12-22T14:22:30;3.43;69.97
68109;SHT30;54893;49.864;19.084;2023-12-22T14:27:31;3.39;70.38
68109;SHT30;54893;49.864;19.084;2023-12-22T14:32:31;3.02;71.29
68109;SHT30;54893;49.864;19.084;2023-12-22T14:37:31;2.87;72.38
68109;SHT30;54893;49.864;19.084;2023-12-22T14:42:32;3.01;73.69
68109;SHT30;54893;49.864;19.084;2023-12-22T14:47:32;2.89;75.70
68109;SHT30;54893;49.864;19.084;2023-12-22T14:52:34;2.96;76.62
68109;SHT30;54893;49.864;19.084;2023-12-22T14:57:34;2.66;77.70
68109;SHT30;54893;49.864;19.084;2023-12-22T15:02:34;2.42;78.39
68109;SHT30;54893;49.864;19.084;2023-12-22T15:07:35;2.30;78.29
68109;SHT30;54893;49.864;19.084;2023-12-22T15:12:35;2.27;78.22
68109;SHT30;54893;49.864;19.084;2023-12-22T15:17:37;1.96;78.49
68109;SHT30;54893;49.864;19.084;2023-12-22T15:22:38;2.09;77.67
68109;SHT30;54893;49.864;19.084;2023-12-22T15:27:40;1.79;78.45
68109;SHT30;54893;49.864;19.084;2023-12-22T15:32:40;1.90;78.07
68109;SHT30;54893;49.864;19.084;2023-12-22T15:37:41;1.86;77.96
68109;SHT30;54893;49.864;19.084;2023-12-22T15:42:41;1.90;77.71
68109;SHT30;54893;49.864;19.084;2023-12-22T15:47:42;1.92;77.86
68109;SHT30;54893;49.864;19.084;2023-12-22T15:52:42;1.89;78.27
68109;SHT30;54893;49.864;19.084;2023-12-22T15:57:42;2.09;77.89
68109;SHT30;54893;49.864;19.084;2023-12-22T16:02:44;2.09;78.61
68109;SHT30;54893;49.864;19.084;2023-12-22T16:07:45;2.02;79.23
68109;SHT30;54893;49.864;19.084;2023-12-22T16:12:45;1.93;79.91
68109;SHT30;54893;49.864;19.084;2023-12-22T16:17:45;1.92;80.44
68109;SHT30;54893;49.864;19.084;2023-12-22T16:22:46;2.00;80.33
68109;SHT30;54893;49.864;19.084;2023-12-22T16:27:46;2.04;80.69
68109;SHT30;54893;49.864;19.084;2023-12-22T16:32:48;1.97;81.10
68109;SHT30;54893;49.864;19.084;2023-12-22T16:37:49;2.00;81.36
68109;SHT30;54893;49.864;19.084;2023-12-22T16:42:49;2.04;81.97
68109;SHT30;54893;49.864;19.084;2023-12-22T16:47:50;2.04;81.90
68109;SHT30;54893;49.864;19.084;2023-12-22T16:52:51;2.06;82.18
68109;SHT30;54893;49.864;19.084;2023-12-22T16:57:51;1.93;82.70
68109;SHT30;54893;49.864;19.084;2023-12-22T17:02:52;2.10;82.62
68109;SHT30;54893;49.864;19.084;2023-12-22T17:07:52;2.02;83.13
68109;SHT30;54893;49.864;19.084;2023-12-22T17:12:52;2.17;83.26
68109;SHT30;54893;49.864;19.084;2023-12-22T17:17:53;2.13;83.27
68109;SHT30;54893;49.864;19.084;2023-12-22T17:22:54;2.03;83.32
68109;SHT30;54893;49.864;19.084;2023-12-22T17:27:54;1.99;83.37
68109;SHT30;54893;49.864;19.084;2023-12-22T17:32:54;1.86;83.59
68109;SHT30;54893;49.864;19.084;2023-12-22T17:37:55;1.90;83.86
68109;SHT30;54893;49.864;19.084;2023-12-22T17:42:55;1.76;84.39
68109;SHT30;54893;49.864;19.084;2023-12-22T17:47:56;1.72;84.68
68109;SHT30;54893;49.864;19.084;2023-12-22T17:52:56;1.80;84.79
68109;SHT30;54893;49.864;19.084;2023-12-22T17:57:56;2.03;83.78
68109;SHT30;54893;49.864;19.084;2023-12-22T18:02:57;2.00;83.62
68109;SHT30;54893;49.864;19.084;2023-12-22T18:07:57;2.06;83.19
68109;SHT30;54893;49.864;19.084;2023-12-22T18:12:58;2.14;82.49
68109;SHT30;54893;49.864;19.084;2023-12-22T18:17:58;2.09;88.04
68109;SHT30;54893;49.864;19.084;2023-12-22T18:22:58;1.48;89.37
68109;SHT30;54893;49.864;19.084;2023-12-22T18:27:59;1.26;90.67
68109;SHT30;54893;49.864;19.084;2023-12-22T18:32:59;0.95;90.47
68109;SHT30;54893;49.864;19.084;2023-12-22T18:37:59;0.98;90.87
68109;SHT30;54893;49.864;19.084;2023-12-22T18:43:00;0.88;90.96
68109;SHT30;54893;49.864;19.084;2023-12-22T18:48:01;0.64;91.53
68109;SHT30;54893;49.864;19.084;2023-12-22T18:53:02;0.64;91.44
68109;SHT30;54893;49.864;19.084;2023-12-22T18:58:03;1.08;89.54
68109;SHT30;54893;49.864;19.084;2023-12-22T19:03:03;1.39;87.13
68109;SHT30;54893;49.864;19.084;2023-12-22T19:08:04;1.53;86.00
68109;SHT30;54893;49.864;19.084;2023-12-22T19:13:04;1.64;85.31
68109;SHT30;54893;49.864;19.084;2023-12-22T19:18:05;1.63;85.27
68109;SHT30;54893;49.864;19.084;2023-12-22T19:23:05;1.64;85.06
68109;SHT30;54893;49.864;19.084;2023-12-22T19:28:06;1.69;84.98
68109;SHT30;54893;49.864;19.084;2023-12-22T19:33:06;1.70;84.78
68109;SHT30;54893;49.864;19.084;2023-12-22T19:38:07;1.69;84.86
68109;SHT30;54893;49.864;19.084;2023-12-22T19:43:07;1.72;85.00
68109;SHT30;54893;49.864;19.084;2023-12-22T19:48:08;1.73;85.08
68109;SHT30;54893;49.864;19.084;2023-12-22T19:53:08;1.73;85.37
68109;SHT30;54893;49.864;19.084;2023-12-22T19:58:08;1.72;85.14
68109;SHT30;54893;49.864;19.084;2023-12-22T20:03:09;1.63;85.78
68109;SHT30;54893;49.864;19.084;2023-12-22T20:08:09;1.53;85.91
68109;SHT30;54893;49.864;19.084;2023-12-22T20:13:10;1.52;85.95
68109;SHT30;54893;49.864;19.084;2023-12-22T20:18:10;1.58;85.06
68109;SHT30;54893;49.864;19.084;2023-12-22T20:23:10;1.50;85.43
68109;SHT30;54893;49.864;19.084;2023-12-22T20:28:11;1.48;85.53
68109;SHT30;54893;49.864;19.084;2023-12-22T20:33:11;1.38;85.81
68109;SHT30;54893;49.864;19.084;2023-12-22T20:38:14;1.34;85.92
68109;SHT30;54893;49.864;19.084;2023-12-22T20:43:14;1.42;85.69
68109;SHT30;54893;49.864;19.084;2023-12-22T20:48:15;1.38;86.15
68109;SHT30;54893;49.864;19.084;2023-12-22T20:53:15;1.39;86.50
68109;SHT30;54893;49.864;19.084;2023-12-22T20:58:16;1.36;86.99
68109;SHT30;54893;49.864;19.084;2023-12-22T21:03:16;1.42;87.24
68109;SHT30;54893;49.864;19.084;2023-12-22T21:08:17;1.32;87.77
68109;SHT30;54893;49.864;19.084;2023-12-22T21:13:17;1.29;87.55
68109;SHT30;54893;49.864;19.084;2023-12-22T21:18:18;1.48;86.03
68109;SHT30;54893;49.864;19.084;2023-12-22T21:23:18;1.40;86.69
68109;SHT30;54893;49.864;19.084;2023-12-22T21:28:19;1.38;87.01
68109;SHT30;54893;49.864;19.084;2023-12-22T21:33:19;1.42;87.07
68109;SHT30;54893;49.864;19.084;2023-12-22T21:38:20;1.52;87.06
68109;SHT30;54893;49.864;19.084;2023-12-22T21:43:20;1.50;86.99
68109;SHT30;54893;49.864;19.084;2023-12-22T21:48:20;1.53;86.77
68109;SHT30;54893;49.864;19.084;2023-12-22T21:53:21;1.39;87.04
68109;SHT30;54893;49.864;19.084;2023-12-22T21:58:21;1.35;87.36
68109;SHT30;54893;49.864;19.084;2023-12-22T22:03:22;1.46;87.04
68109;SHT30;54893;49.864;19.084;2023-12-22T22:08:22;1.31;87.01
68109;SHT30;54893;49.864;19.084;2023-12-22T22:13:22;1.35;86.36
68109;SHT30;54893;49.864;19.084;2023-12-22T22:18:23;1.34;86.49
68109;SHT30;54893;49.864;19.084;2023-12-22T22:23:23;1.34;86.74
68109;SHT30;54893;49.864;19.084;2023-12-22T22:28:23;1.15;87.67
68109;SHT30;54893;49.864;19.084;2023-12-22T22:33:24;1.25;87.87
68109;SHT30;54893;49.864;19.084;2023-12-22T22:38:24;1.25;88.05
68109;SHT30;54893;49.864;19.084;2023-12-22T22:43:24;1.36;88.28
68109;SHT30;54893;49.864;19.084;2023-12-22T22:48:25;1.22;88.63
68109;SHT30;54893;49.864;19.084;2023-12-22T22:53:25;1.35;88.62
68109;SHT30;54893;49.864;19.084;2023-12-22T22:58:25;1.45;88.63
68109;SHT30;54893;49.864;19.084;2023-12-22T23:03:26;1.48;88.57
68109;SHT30;54893;49.864;19.084;2023-12-22T23:08:26;1.53;88.54
68109;SHT30;54893;49.864;19.084;2023-12-22T23:13:27;1.53;87.57
68109;SHT30;54893;49.864;19.084;2023-12-22T23:18:28;1.72;84.92
68109;SHT30;54893;49.864;19.084;2023-12-22T23:23:28;1.66;85.32
68109;SHT30;54893;49.864;19.084;2023-12-22T23:28:28;1.55;85.95
68109;SHT30;54893;49.864;19.084;2023-12-22T23:33:29;1.53;86.56
68109;SHT30;54893;49.864;19.084;2023-12-22T23:38:30;1.52;86.68
68109;SHT30;54893;49.864;19.084;2023-12-22T23:43:30;1.49;86.87
68109;SHT30;54893;49.864;19.084;2023-12-22T23:48:31;1.55;86.70
68109;SHT30;54893;49.864;19.084;2023-12-22T23:53:32;1.63;86.80
68109;SHT30;54893;49.864;19.084;2023-12-22T23:58:32;1.52;87.56
